sensor_id;sensor_type;location;lat;lon;timestamp;P1;durP1;ratioP1;P2;durP2;ratioP2
8893;SDS011;4483;48.622;9.230;2024-02-15T00:00:18;3.43;;;3.10;;
8893;SDS011;4483;48.622;9.230;2024-02-15T00:02:46;2.53;;;2.33;;
8893;SDS011;4483;48.622;9.230;2024-02-15T00:05:13;3.23;;;2.60;;
8893;SDS011;4483;48.622;9.230;2024-02-15T00:07:41;5.00;;;2.50;;
8893;SDS011;4483;48.622;9.230;2024-02-15T00:10:09;2.93;;;2.70;;
8893;SDS011;4483;48.622;9.230;2024-02-15T00:12:36;2.87;;;2.63;;
8893;SDS011;4483;48.622;9.230;2024-02-15T00:15:03;3.67;;;2.57;;
8893;SDS011;4483;48.622;9.230;2024-02-15T00:17:30;2.80;;;2.60;;
8893;SDS011;4483;48.622;9.230;2024-02-15T00:19:59;2.73;;;2.53;;
8893;SDS011;4483;48.622;9.230;2024-02-15T00:22:26;5.37;;;2.70;;
8893;SDS011;4483;48.622;9.230;2024-02-15T00:24:52;2.93;;;2.60;;
8893;SDS011;4483;48.622;9.230;2024-02-15T00:27:19;3.07;;;2.77;;
8893;SDS011;4483;48.622;9.230;2024-02-15T00:29:46;3.77;;;2.80;;
8893;SDS011;4483;48.622;9.230;2024-02-15T00:32:13;3.50;;;2.57;;
8893;SDS011;4483;48.622;9.230;2024-02-15T00:34:39;3.50;;;2.50;;
8893;SDS011;4483;48.622;9.230;2024-02-15T00:37:08;3.10;;;2.80;;
8893;SDS011;4483;48.622;9.230;2024-02-15T00:39:34;1.80;;;1.70;;
8893;SDS011;4483;48.622;9.230;2024-02-15T00:42:01;1.70;;;1.60;;
8893;SDS011;4483;48.622;9.230;2024-02-15T00:44:28;1.60;;;1.50;;
8893;SDS011;4483;48.622;9.230;2024-02-15T00:46:56;3.47;;;2.40;;
8893;SDS011;4483;48.622;9.230;2024-02-15T00:49:23;3.23;;;2.80;;
8893;SDS011;4483;48.622;9.230;2024-02-15T00:51:52;4.03;;;2.43;;
8893;SDS011;4483;48.622;9.230;2024-02-15T00:54:21;2.97;;;2.37;;
8893;SDS011;4483;48.622;9.230;2024-02-15T00:56:48;4.70;;;2.20;;
8893;SDS011;4483;48.622;9.230;2024-02-15T00:59:14;4.10;;;2.27;;
8893;SDS011;4483;48.622;9.230;2024-02-15T01:01:41;4.97;;;2.20;;
8893;SDS011;4483;48.622;9.230;2024-02-15T01:04:08;2.20;;;2.00;;
8893;SDS011;4483;48.622;9.230;2024-02-15T01:06:34;2.87;;;2.63;;
8893;SDS011;4483;48.622;9.230;2024-02-15T01:09:01;3.53;;;2.60;;
8893;SDS011;4483;48.622;9.230;2024-02-15T01:11:30;4.10;;;2.60;;
8893;SDS011;4483;48.622;9.230;2024-02-15T01:13:58;4.27;;;2.63;;
8893;SDS011;4483;48.622;9.230;2024-02-15T01:16:25;4.03;;;2.27;;
8893;SDS011;4483;48.622;9.230;2024-02-15T01:18:51;3.50;;;2.63;;
8893;SDS011;4483;48.622;9.230;2024-02-15T01:21:18;3.53;;;2.37;;
8893;SDS011;4483;48.622;9.230;2024-02-15T01:23:45;2.70;;;2.50;;
8893;SDS011;4483;48.622;9.230;2024-02-15T01:26:12;4.17;;;2.50;;
8893;SDS011;4483;48.622;9.230;2024-02-15T01:28:40;2.80;;;2.57;;
8893;SDS011;4483;48.622;9.230;2024-02-15T01:31:08;3.00;;;2.50;;
8893;SDS011;4483;48.622;9.230;2024-02-15T01:33:35;2.70;;;2.50;;
8893;SDS011;4483;48.622;9.230;2024-02-15T01:36:02;3.73;;;2.30;;
8893;SDS011;4483;48.622;9.230;2024-02-15T01:38:29;2.47;;;2.27;;
8893;SDS011;4483;48.622;9.230;2024-02-15T01:40:56;3.40;;;2.10;;
8893;SDS011;4483;48.622;9.230;2024-02-15T01:43:23;2.87;;;2.60;;
8893;SDS011;4483;48.622;9.230;2024-02-15T01:45:51;3.90;;;2.50;;
8893;SDS011;4483;48.622;9.230;2024-02-15T01:48:18;2.50;;;2.30;;
8893;SDS011;4483;48.622;9.230;2024-02-15T01:50:45;5.00;;;2.30;;
8893;SDS011;4483;48.622;9.230;2024-02-15T01:53:12;2.53;;;2.30;;
8893;SDS011;4483;48.622;9.230;2024-02-15T01:55:39;4.60;;;2.10;;
8893;SDS011;4483;48.622;9.230;2024-02-15T01:58:06;2.50;;;2.30;;
8893;SDS011;4483;48.622;9.230;2024-02-15T02:00:33;2.57;;;2.40;;
8893;SDS011;4483;48.622;9.230;2024-02-15T02:03:02;3.73;;;1.93;;
8893;SDS011;4483;48.622;9.230;2024-02-15T02:05:29;3.20;;;2.40;;
8893;SDS011;4483;48.622;9.230;2024-02-15T02:07:57;2.73;;;1.93;;
8893;SDS011;4483;48.622;9.230;2024-02-15T02:10:24;3.93;;;1.90;;
8893;SDS011;4483;48.622;9.230;2024-02-15T02:12:52;2.00;;;1.80;;
8893;SDS011;4483;48.622;9.230;2024-02-15T02:15:19;2.00;;;1.90;;
8893;SDS011;4483;48.622;9.230;2024-02-15T02:17:48;2.73;;;1.97;;
8893;SDS011;4483;48.622;9.230;2024-02-15T02:20:17;6.73;;;2.00;;
8893;SDS011;4483;48.622;9.230;2024-02-15T02:22:45;1.77;;;1.67;;
8893;SDS011;4483;48.622;9.230;2024-02-15T02:25:14;2.20;;;2.10;;
8893;SDS011;4483;48.622;9.230;2024-02-15T02:27:42;2.80;;;1.87;;
8893;SDS011;4483;48.622;9.230;2024-02-15T02:30:12;1.93;;;1.70;;
8893;SDS011;4483;48.622;9.230;2024-02-15T02:32:42;1.87;;;1.73;;
8893;SDS011;4483;48.622;9.230;2024-02-15T02:35:09;2.73;;;2.20;;
8893;SDS011;4483;48.622;9.230;2024-02-15T02:37:37;5.97;;;1.70;;
8893;SDS011;4483;48.622;9.230;2024-02-15T02:40:04;4.73;;;1.80;;
8893;SDS011;4483;48.622;9.230;2024-02-15T02:42:35;1.70;;;1.60;;
8893;SDS011;4483;48.622;9.230;2024-02-15T02:45:01;2.63;;;1.57;;
8893;SDS011;4483;48.622;9.230;2024-02-15T02:47:28;1.70;;;1.60;;
8893;SDS011;4483;48.622;9.230;2024-02-15T02:49:55;4.57;;;1.60;;
8893;SDS011;4483;48.622;9.230;2024-02-15T02:52:21;1.77;;;1.50;;
8893;SDS011;4483;48.622;9.230;2024-02-15T02:54:48;5.53;;;1.70;;
8893;SDS011;4483;48.622;9.230;2024-02-15T02:57:14;1.70;;;1.60;;
8893;SDS011;4483;48.622;9.230;2024-02-15T02:59:43;1.87;;;1.77;;
8893;SDS011;4483;48.622;9.230;2024-02-15T03:02:10;2.13;;;2.03;;
8893;SDS011;4483;48.622;9.230;2024-02-15T03:04:37;4.27;;;1.80;;
8893;SDS011;4483;48.622;9.230;2024-02-15T03:07:05;4.43;;;1.40;;
8893;SDS011;4483;48.622;9.230;2024-02-15T03:09:32;3.17;;;1.80;;
8893;SDS011;4483;48.622;9.230;2024-02-15T03:11:58;1.57;;;1.47;;
8893;SDS011;4483;48.622;9.230;2024-02-15T03:14:26;4.40;;;1.60;;
8893;SDS011;4483;48.622;9.230;2024-02-15T03:16:56;1.90;;;1.80;;
8893;SDS011;4483;48.622;9.230;2024-02-15T03:19:23;2.40;;;1.40;;
8893;SDS011;4483;48.622;9.230;2024-02-15T03:21:51;2.00;;;1.67;;
8893;SDS011;4483;48.622;9.230;2024-02-15T03:24:18;2.80;;;1.60;;
8893;SDS011;4483;48.622;9.230;2024-02-15T03:26:44;2.77;;;1.40;;
8893;SDS011;4483;48.622;9.230;2024-02-15T03:29:11;3.07;;;1.50;;
8893;SDS011;4483;48.622;9.230;2024-02-15T03:31:38;3.90;;;1.80;;
8893;SDS011;4483;48.622;9.230;2024-02-15T03:34:06;2.87;;;1.30;;
8893;SDS011;4483;48.622;9.230;2024-02-15T03:36:32;4.20;;;1.20;;
8893;SDS011;4483;48.622;9.230;2024-02-15T03:38:59;1.30;;;1.20;;
8893;SDS011;4483;48.622;9.230;2024-02-15T03:41:27;1.73;;;1.33;;
8893;SDS011;4483;48.622;9.230;2024-02-15T03:43:58;4.23;;;1.53;;
8893;SDS011;4483;48.622;9.230;2024-02-15T03:46:25;2.73;;;1.33;;
8893;SDS011;4483;48.622;9.230;2024-02-15T03:48:53;0.97;;;0.97;;
8893;SDS011;4483;48.622;9.230;2024-02-15T03:51:22;1.40;;;1.20;;
8893;SDS011;4483;48.622;9.230;2024-02-15T03:53:49;3.63;;;1.40;;
8893;SDS011;4483;48.622;9.230;2024-02-15T03:56:17;2.83;;;1.40;;
8893;SDS011;4483;48.622;9.230;2024-02-15T03:58:43;2.67;;;1.37;;
8893;SDS011;4483;48.622;9.230;2024-02-15T04:01:10;1.40;;;1.30;;
8893;SDS011;4483;48.622;9.230;2024-02-15T04:03:40;1.40;;;1.30;;
8893;SDS011;4483;48.622;9.230;2024-02-15T04:06:06;1.50;;;1.13;;
8893;SDS011;4483;48.622;9.230;2024-02-15T04:08:35;1.07;;;1.07;;
8893;SDS011;4483;48.622;9.230;2024-02-15T04:11:04;1.53;;;1.20;;
8893;SDS011;4483;48.622;9.230;2024-02-15T04:13:31;1.47;;;1.37;;
8893;SDS011;4483;48.622;9.230;2024-02-15T04:15:58;1.30;;;1.20;;
8893;SDS011;4483;48.622;9.230;2024-02-15T04:18:25;1.20;;;1.10;;
8893;SDS011;4483;48.622;9.230;2024-02-15T04:20:51;3.20;;;1.23;;
8893;SDS011;4483;48.622;9.230;2024-02-15T04:23:18;2.63;;;1.30;;
8893;SDS011;4483;48.622;9.230;2024-02-15T04:25:47;1.60;;;1.50;;
8893;SDS011;4483;48.622;9.230;2024-02-15T04:28:16;3.20;;;1.13;;
8893;SDS011;4483;48.622;9.230;2024-02-15T04:30:43;3.10;;;1.40;;
8893;SDS011;4483;48.622;9.230;2024-02-15T04:33:11;3.50;;;1.30;;
8893;SDS011;4483;48.622;9.230;2024-02-15T04:35:40;2.40;;;1.30;;
8893;SDS011;4483;48.622;9.230;2024-02-15T04:38:07;2.17;;;1.87;;
8893;SDS011;4483;48.622;9.230;2024-02-15T04:40:34;3.93;;;1.30;;
8893;SDS011;4483;48.622;9.230;2024-02-15T04:43:03;1.17;;;1.07;;
8893;SDS011;4483;48.622;9.230;2024-02-15T04:45:30;1.43;;;1.20;;
8893;SDS011;4483;48.622;9.230;2024-02-15T04:47:57;1.40;;;1.30;;
8893;SDS011;4483;48.622;9.230;2024-02-15T04:50:26;2.70;;;1.50;;
8893;SDS011;4483;48.622;9.230;2024-02-15T04:52:54;3.67;;;1.30;;
8893;SDS011;4483;48.622;9.230;2024-02-15T04:55:21;2.80;;;1.50;;
8893;SDS011;4483;48.622;9.230;2024-02-15T04:57:47;2.83;;;1.33;;
8893;SDS011;4483;48.622;9.230;2024-02-15T05:00:21;2.00;;;1.57;;
8893;SDS011;4483;48.622;9.230;2024-02-15T05:02:48;1.50;;;1.40;;
8893;SDS011;4483;48.622;9.230;2024-02-15T05:05:15;1.40;;;1.30;;
8893;SDS011;4483;48.622;9.230;2024-02-15T05:07:41;3.30;;;1.20;;
8893;SDS011;4483;48.622;9.230;2024-02-15T05:10:08;1.50;;;1.40;;
8893;SDS011;4483;48.622;9.230;2024-02-15T05:12:36;1.70;;;1.43;;
8893;SDS011;4483;48.622;9.230;2024-02-15T05:15:05;2.93;;;1.50;;
8893;SDS011;4483;48.622;9.230;2024-02-15T05:17:36;3.13;;;1.57;;
8893;SDS011;4483;48.622;9.230;2024-02-15T05:20:06;5.57;;;1.67;;
8893;SDS011;4483;48.622;9.230;2024-02-15T05:22:36;2.90;;;1.40;;
8893;SDS011;4483;48.622;9.230;2024-02-15T05:25:04;2.00;;;1.90;;
8893;SDS011;4483;48.622;9.230;2024-02-15T05:27:31;2.03;;;1.67;;
8893;SDS011;4483;48.622;9.230;2024-02-15T05:29:58;3.80;;;1.90;;
8893;SDS011;4483;48.622;9.230;2024-02-15T05:32:25;2.50;;;1.60;;
8893;SDS011;4483;48.622;9.230;2024-02-15T05:34:53;4.20;;;1.73;;
8893;SDS011;4483;48.622;9.230;2024-02-15T05:37:20;3.17;;;1.80;;
8893;SDS011;4483;48.622;9.230;2024-02-15T05:39:48;2.20;;;1.90;;
8893;SDS011;4483;48.622;9.230;2024-02-15T05:42:17;2.77;;;1.80;;
8893;SDS011;4483;48.622;9.230;2024-02-15T05:44:44;2.50;;;1.80;;
8893;SDS011;4483;48.622;9.230;2024-02-15T05:47:11;2.57;;;1.90;;
8893;SDS011;4483;48.622;9.230;2024-02-15T05:49:38;3.93;;;2.00;;
8893;SDS011;4483;48.622;9.230;2024-02-15T05:52:06;5.53;;;1.70;;
8893;SDS011;4483;48.622;9.230;2024-02-15T05:54:33;4.90;;;1.97;;
8893;SDS011;4483;48.622;9.230;2024-02-15T05:57:00;8.50;;;2.00;;
8893;SDS011;4483;48.622;9.230;2024-02-15T05:59:26;3.70;;;2.50;;
8893;SDS011;4483;48.622;9.230;2024-02-15T06:01:54;2.87;;;2.20;;
8893;SDS011;4483;48.622;9.230;2024-02-15T06:04:20;4.80;;;2.00;;
8893;SDS011;4483;48.622;9.230;2024-02-15T06:06:48;6.83;;;2.70;;
8893;SDS011;4483;48.622;9.230;2024-02-15T06:09:17;4.10;;;2.60;;
8893;SDS011;4483;48.622;9.230;2024-02-15T06:11:47;6.80;;;3.40;;
8893;SDS011;4483;48.622;9.230;2024-02-15T06:14:15;6.40;;;3.17;;
8893;SDS011;4483;48.622;9.230;2024-02-15T06:16:43;5.57;;;3.13;;
8893;SDS011;4483;48.622;9.230;2024-02-15T06:19:10;9.17;;;3.30;;
8893;SDS011;4483;48.622;9.230;2024-02-15T06:21:36;5.20;;;2.93;;
8893;SDS011;4483;48.622;9.230;2024-02-15T06:24:03;4.27;;;2.77;;
8893;SDS011;4483;48.622;9.230;2024-02-15T06:26:31;4.03;;;2.57;;
8893;SDS011;4483;48.622;9.230;2024-02-15T06:28:59;5.63;;;2.83;;
8893;SDS011;4483;48.622;9.230;2024-02-15T06:31:52;5.27;;;2.60;;
8893;SDS011;4483;48.622;9.230;2024-02-15T06:34:36;4.90;;;2.90;;
8893;SDS011;4483;48.622;9.230;2024-02-15T06:37:34;6.33;;;3.10;;
8893;SDS011;4483;48.622;9.230;2024-02-15T06:40:19;3.20;;;2.50;;
8893;SDS011;4483;48.622;9.230;2024-02-15T06:42:47;4.63;;;2.70;;
8893;SDS011;4483;48.622;9.230;2024-02-15T06:45:14;4.70;;;2.83;;
8893;SDS011;4483;48.622;9.230;2024-02-15T06:47:41;3.93;;;2.70;;
8893;SDS011;4483;48.622;9.230;2024-02-15T06:50:09;4.10;;;2.60;;
8893;SDS011;4483;48.622;9.230;2024-02-15T06:52:36;6.40;;;2.50;;
8893;SDS011;4483;48.622;9.230;2024-02-15T06:55:03;3.30;;;2.57;;
8893;SDS011;4483;48.622;9.230;2024-02-15T06:57:30;3.00;;;2.75;;
8893;SDS011;4483;48.622;9.230;2024-02-15T06:59:59;4.40;;;2.67;;
8893;SDS011;4483;48.622;9.230;2024-02-15T07:02:26;3.30;;;2.70;;
8893;SDS011;4483;48.622;9.230;2024-02-15T07:04:54;2.43;;;2.03;;
8893;SDS011;4483;48.622;9.230;2024-02-15T07:07:20;5.27;;;2.47;;
8893;SDS011;4483;48.622;9.230;2024-02-15T07:09:47;5.70;;;2.63;;
8893;SDS011;4483;48.622;9.230;2024-02-15T07:12:13;4.70;;;2.90;;
8893;SDS011;4483;48.622;9.230;2024-02-15T07:14:40;4.37;;;2.60;;
8893;SDS011;4483;48.622;9.230;2024-02-15T07:17:09;2.70;;;2.50;;
8893;SDS011;4483;48.622;9.230;2024-02-15T07:19:36;3.30;;;2.70;;
8893;SDS011;4483;48.622;9.230;2024-02-15T07:22:03;3.17;;;2.57;;
8893;SDS011;4483;48.622;9.230;2024-02-15T07:24:30;3.80;;;2.73;;
8893;SDS011;4483;48.622;9.230;2024-02-15T07:26:57;7.47;;;2.50;;
8893;SDS011;4483;48.622;9.230;2024-02-15T07:29:24;4.00;;;2.87;;
8893;SDS011;4483;48.622;9.230;2024-02-15T07:31:50;5.57;;;2.80;;
8893;SDS011;4483;48.622;9.230;2024-02-15T07:34:18;4.70;;;2.10;;
8893;SDS011;4483;48.622;9.230;2024-02-15T07:36:45;2.53;;;1.90;;
8893;SDS011;4483;48.622;9.230;2024-02-15T07:39:12;1.90;;;1.80;;
8893;SDS011;4483;48.622;9.230;2024-02-15T07:41:48;4.23;;;2.37;;
8893;SDS011;4483;48.622;9.230;2024-02-15T07:44:14;4.50;;;2.20;;
8893;SDS011;4483;48.622;9.230;2024-02-15T07:46:42;4.23;;;2.20;;
8893;SDS011;4483;48.622;9.230;2024-02-15T07:49:09;4.20;;;1.90;;
8893;SDS011;4483;48.622;9.230;2024-02-15T07:51:38;4.17;;;2.80;;
8893;SDS011;4483;48.622;9.230;2024-02-15T07:54:04;5.00;;;2.27;;
8893;SDS011;4483;48.622;9.230;2024-02-15T07:56:31;2.33;;;2.13;;
8893;SDS011;4483;48.622;9.230;2024-02-15T07:58:58;4.20;;;2.03;;
8893;SDS011;4483;48.622;9.230;2024-02-15T08:01:24;3.37;;;2.00;;
8893;SDS011;4483;48.622;9.230;2024-02-15T08:03:51;2.20;;;2.00;;
8893;SDS011;4483;48.622;9.230;2024-02-15T08:06:18;4.33;;;2.43;;
8893;SDS011;4483;48.622;9.230;2024-02-15T08:08:46;4.87;;;2.00;;
8893;SDS011;4483;48.622;9.230;2024-02-15T08:11:14;5.37;;;2.47;;
8893;SDS011;4483;48.622;9.230;2024-02-15T08:13:44;3.97;;;2.80;;
8893;SDS011;4483;48.622;9.230;2024-02-15T08:16:13;4.87;;;2.20;;
8893;SDS011;4483;48.622;9.230;2024-02-15T08:18:41;4.60;;;2.53;;
8893;SDS011;4483;48.622;9.230;2024-02-15T08:21:08;4.50;;;2.40;;
8893;SDS011;4483;48.622;9.230;2024-02-15T08:23:35;3.17;;;2.43;;
8893;SDS011;4483;48.622;9.230;2024-02-15T08:26:04;4.87;;;2.40;;
8893;SDS011;4483;48.622;9.230;2024-02-15T08:28:30;3.20;;;2.80;;
8893;SDS011;4483;48.622;9.230;2024-02-15T08:30:57;3.13;;;2.47;;
8893;SDS011;4483;48.622;9.230;2024-02-15T08:33:24;4.40;;;2.50;;
8893;SDS011;4483;48.622;9.230;2024-02-15T08:35:53;3.43;;;2.33;;
8893;SDS011;4483;48.622;9.230;2024-02-15T08:38:20;2.77;;;1.90;;
8893;SDS011;4483;48.622;9.230;2024-02-15T08:40:47;4.63;;;2.37;;
8893;SDS011;4483;48.622;9.230;2024-02-15T08:43:15;3.70;;;2.10;;
8893;SDS011;4483;48.622;9.230;2024-02-15T08:45:42;2.73;;;1.83;;
8893;SDS011;4483;48.622;9.230;2024-02-15T08:48:09;2.97;;;1.70;;
8893;SDS011;4483;48.622;9.230;2024-02-15T08:50:36;1.80;;;1.70;;
8893;SDS011;4483;48.622;9.230;2024-02-15T08:53:03;2.23;;;1.93;;
8893;SDS011;4483;48.622;9.230;2024-02-15T08:55:31;1.90;;;1.80;;
8893;SDS011;4483;48.622;9.230;2024-02-15T08:58:00;2.97;;;1.73;;
8893;SDS011;4483;48.622;9.230;2024-02-15T09:00:29;3.33;;;1.97;;
8893;SDS011;4483;48.622;9.230;2024-02-15T09:02:56;3.00;;;1.80;;
8893;SDS011;4483;48.622;9.230;2024-02-15T09:05:23;1.83;;;1.73;;
8893;SDS011;4483;48.622;9.230;2024-02-15T09:07:50;4.67;;;2.30;;
8893;SDS011;4483;48.622;9.230;2024-02-15T09:10:17;1.65;;;1.55;;
8893;SDS011;4483;48.622;9.230;2024-02-15T09:12:44;1.70;;;1.60;;
8893;SDS011;4483;48.622;9.230;2024-02-15T09:15:12;2.30;;;1.60;;
8893;SDS011;4483;48.622;9.230;2024-02-15T09:17:40;2.17;;;1.70;;
8893;SDS011;4483;48.622;9.230;2024-02-15T09:20:09;2.85;;;2.15;;
8893;SDS011;4483;48.622;9.230;2024-02-15T09:22:39;1.98;;;1.80;;
8893;SDS011;4483;48.622;9.230;2024-02-15T09:25:07;2.10;;;2.00;;
8893;SDS011;4483;48.622;9.230;2024-02-15T09:27:34;1.67;;;1.58;;
8893;SDS011;4483;48.622;9.230;2024-02-15T09:30:01;3.00;;;1.67;;
8893;SDS011;4483;48.622;9.230;2024-02-15T09:32:28;1.90;;;1.73;;
8893;SDS011;4483;48.622;9.230;2024-02-15T09:34:56;1.95;;;1.60;;
8893;SDS011;4483;48.622;9.230;2024-02-15T09:37:23;1.88;;;1.70;;
8893;SDS011;4483;48.622;9.230;2024-02-15T09:39:51;2.42;;;1.58;;
8893;SDS011;4483;48.622;9.230;2024-02-15T09:42:18;1.80;;;1.70;;
8893;SDS011;4483;48.622;9.230;2024-02-15T09:44:44;4.05;;;1.70;;
8893;SDS011;4483;48.622;9.230;2024-02-15T09:47:12;2.58;;;2.00;;
8893;SDS011;4483;48.622;9.230;2024-02-15T09:49:42;2.92;;;1.67;;
8893;SDS011;4483;48.622;9.230;2024-02-15T09:52:10;2.67;;;1.60;;
8893;SDS011;4483;48.622;9.230;2024-02-15T09:54:41;2.22;;;1.75;;
8893;SDS011;4483;48.622;9.230;2024-02-15T09:57:08;2.00;;;1.77;;
8893;SDS011;4483;48.622;9.230;2024-02-15T09:59:37;1.63;;;1.52;;
8893;SDS011;4483;48.622;9.230;2024-02-15T10:02:05;2.97;;;1.48;;
8893;SDS011;4483;48.622;9.230;2024-02-15T10:04:35;3.67;;;2.00;;
8893;SDS011;4483;48.622;9.230;2024-02-15T10:07:03;3.47;;;1.98;;
8893;SDS011;4483;48.622;9.230;2024-02-15T10:09:31;3.38;;;1.88;;
8893;SDS011;4483;48.622;9.230;2024-02-15T10:11:59;2.20;;;1.80;;
8893;SDS011;4483;48.622;9.230;2024-02-15T10:14:28;2.67;;;1.90;;
8893;SDS011;4483;48.622;9.230;2024-02-15T10:16:56;3.33;;;1.88;;
8893;SDS011;4483;48.622;9.230;2024-02-15T10:19:22;2.13;;;1.88;;
8893;SDS011;4483;48.622;9.230;2024-02-15T10:21:51;4.32;;;1.55;;
8893;SDS011;4483;48.622;9.230;2024-02-15T10:24:20;6.75;;;1.45;;
8893;SDS011;4483;48.622;9.230;2024-02-15T10:26:50;1.92;;;1.50;;
8893;SDS011;4483;48.622;9.230;2024-02-15T10:29:18;4.43;;;1.70;;
8893;SDS011;4483;48.622;9.230;2024-02-15T10:31:55;1.77;;;1.52;;
8893;SDS011;4483;48.622;9.230;2024-02-15T10:34:24;1.40;;;1.30;;
8893;SDS011;4483;48.622;9.230;2024-02-15T10:36:52;1.20;;;1.17;;
8893;SDS011;4483;48.622;9.230;2024-02-15T10:39:21;1.40;;;1.30;;
8893;SDS011;4483;48.622;9.230;2024-02-15T10:41:51;1.20;;;1.15;;
8893;SDS011;4483;48.622;9.230;2024-02-15T10:44:19;3.15;;;1.65;;
8893;SDS011;4483;48.622;9.230;2024-02-15T10:46:47;2.20;;;1.85;;
8893;SDS011;4483;48.622;9.230;2024-02-15T10:49:16;3.80;;;2.28;;
8893;SDS011;4483;48.622;9.230;2024-02-15T10:51:48;2.17;;;1.52;;
8893;SDS011;4483;48.622;9.230;2024-02-15T10:54:22;1.55;;;1.45;;
8893;SDS011;4483;48.622;9.230;2024-02-15T10:57:04;4.22;;;1.58;;
8893;SDS011;4483;48.622;9.230;2024-02-15T10:59:32;3.53;;;1.45;;
8893;SDS011;4483;48.622;9.230;2024-02-15T11:02:03;3.58;;;1.70;;
8893;SDS011;4483;48.622;9.230;2024-02-15T11:04:48;1.33;;;1.30;;
8893;SDS011;4483;48.622;9.230;2024-02-15T11:07:21;2.13;;;1.92;;
8893;SDS011;4483;48.622;9.230;2024-02-15T11:09:50;1.60;;;1.50;;
8893;SDS011;4483;48.622;9.230;2024-02-15T11:12:19;2.33;;;1.30;;
8893;SDS011;4483;48.622;9.230;2024-02-15T11:14:46;1.85;;;1.40;;
8893;SDS011;4483;48.622;9.230;2024-02-15T11:17:12;1.95;;;1.42;;
8893;SDS011;4483;48.622;9.230;2024-02-15T11:23:24;1.83;;;1.33;;
8893;SDS011;4483;48.622;9.230;2024-02-15T11:25:53;4.30;;;1.58;;
8893;SDS011;4483;48.622;9.230;2024-02-15T11:28:43;4.72;;;1.40;;
8893;SDS011;4483;48.622;9.230;2024-02-15T11:40:16;1.02;;;1.00;;
8893;SDS011;4483;48.622;9.230;2024-02-15T11:42:43;3.60;;;1.58;;
8893;SDS011;4483;48.622;9.230;2024-02-15T11:45:12;1.42;;;1.10;;
8893;SDS011;4483;48.622;9.230;2024-02-15T11:47:39;1.15;;;1.10;;
8893;SDS011;4483;48.622;9.230;2024-02-15T11:50:08;1.08;;;1.08;;
8893;SDS011;4483;48.622;9.230;2024-02-15T11:52:37;1.10;;;1.00;;
8893;SDS011;4483;48.622;9.230;2024-02-15T11:55:05;1.20;;;1.10;;
8893;SDS011;4483;48.622;9.230;2024-02-15T11:57:35;1.50;;;1.30;;
8893;SDS011;4483;48.622;9.230;2024-02-15T12:00:05;1.15;;;0.98;;
8893;SDS011;4483;48.622;9.230;2024-02-15T12:03:00;1.73;;;1.40;;
8893;SDS011;4483;48.622;9.230;2024-02-15T12:05:44;6.57;;;1.65;;
8893;SDS011;4483;48.622;9.230;2024-02-15T12:08:31;1.10;;;1.00;;
8893;SDS011;4483;48.622;9.230;2024-02-15T12:11:15;1.52;;;1.00;;
8893;SDS011;4483;48.622;9.230;2024-02-15T12:14:12;1.25;;;1.15;;
8893;SDS011;4483;48.622;9.230;2024-02-15T12:17:02;1.15;;;1.00;;
8893;SDS011;4483;48.622;9.230;2024-02-15T12:19:49;2.72;;;1.15;;
8893;SDS011;4483;48.622;9.230;2024-02-15T12:22:19;1.40;;;1.27;;
8893;SDS011;4483;48.622;9.230;2024-02-15T12:24:57;1.15;;;1.10;;
8893;SDS011;4483;48.622;9.230;2024-02-15T12:27:25;1.73;;;1.25;;
8893;SDS011;4483;48.622;9.230;2024-02-15T12:29:53;4.53;;;1.38;;
8893;SDS011;4483;48.622;9.230;2024-02-15T12:32:21;1.15;;;1.10;;
8893;SDS011;4483;48.622;9.230;2024-02-15T12:34:49;3.08;;;1.98;;
8893;SDS011;4483;48.622;9.230;2024-02-15T12:37:17;1.50;;;1.40;;
8893;SDS011;4483;48.622;9.230;2024-02-15T12:39:46;1.35;;;1.20;;
8893;SDS011;4483;48.622;9.230;2024-02-15T12:42:13;1.20;;;1.10;;
8893;SDS011;4483;48.622;9.230;2024-02-15T12:44:42;3.22;;;1.20;;
8893;SDS011;4483;48.622;9.230;2024-02-15T12:47:17;1.55;;;1.45;;
8893;SDS011;4483;48.622;9.230;2024-02-15T12:49:44;2.58;;;1.10;;
8893;SDS011;4483;48.622;9.230;2024-02-15T12:55:11;3.45;;;1.70;;
8893;SDS011;4483;48.622;9.230;2024-02-15T12:57:39;1.67;;;1.23;;
8893;SDS011;4483;48.622;9.230;2024-02-15T13:00:07;1.05;;;1.00;;
8893;SDS011;4483;48.622;9.230;2024-02-15T13:02:42;2.38;;;1.30;;
8893;SDS011;4483;48.622;9.230;2024-02-15T13:05:09;2.38;;;1.27;;
8893;SDS011;4483;48.622;9.230;2024-02-15T13:07:38;1.70;;;1.60;;
8893;SDS011;4483;48.622;9.230;2024-02-15T13:10:05;1.83;;;1.17;;
8893;SDS011;4483;48.622;9.230;2024-02-15T13:12:33;3.53;;;1.48;;
8893;SDS011;4483;48.622;9.230;2024-02-15T13:15:01;1.27;;;1.10;;
8893;SDS011;4483;48.622;9.230;2024-02-15T13:17:29;1.30;;;1.20;;
8893;SDS011;4483;48.622;9.230;2024-02-15T13:19:58;1.77;;;0.90;;
8893;SDS011;4483;48.622;9.230;2024-02-15T13:22:29;3.25;;;1.20;;
8893;SDS011;4483;48.622;9.230;2024-02-15T13:24:58;2.72;;;1.30;;
8893;SDS011;4483;48.622;9.230;2024-02-15T13:27:25;3.03;;;1.45;;
8893;SDS011;4483;48.622;9.230;2024-02-15T13:29:52;1.30;;;1.20;;
8893;SDS011;4483;48.622;9.230;2024-02-15T13:32:20;2.40;;;1.30;;
8893;SDS011;4483;48.622;9.230;2024-02-15T13:34:47;1.75;;;1.38;;
8893;SDS011;4483;48.622;9.230;2024-02-15T13:37:17;1.85;;;1.27;;
8893;SDS011;4483;48.622;9.230;2024-02-15T13:39:45;1.17;;;1.08;;
8893;SDS011;4483;48.622;9.230;2024-02-15T13:42:14;1.40;;;1.30;;
8893;SDS011;4483;48.622;9.230;2024-02-15T13:44:41;2.25;;;1.25;;
8893;SDS011;4483;48.622;9.230;2024-02-15T13:47:08;1.52;;;1.40;;
8893;SDS011;4483;48.622;9.230;2024-02-15T13:49:36;14.63;;;1.30;;
8893;SDS011;4483;48.622;9.230;2024-02-15T13:52:03;1.73;;;1.52;;
8893;SDS011;4483;48.622;9.230;2024-02-15T13:54:31;1.48;;;1.25;;
8893;SDS011;4483;48.622;9.230;2024-02-15T13:56:58;1.50;;;1.20;;
8893;SDS011;4483;48.622;9.230;2024-02-15T13:59:27;3.28;;;1.30;;
8893;SDS011;4483;48.622;9.230;2024-02-15T14:01:54;3.50;;;1.17;;
8893;SDS011;4483;48.622;9.230;2024-02-15T14:04:21;2.67;;;1.30;;
8893;SDS011;4483;48.622;9.230;2024-02-15T14:06:47;2.85;;;1.42;;
8893;SDS011;4483;48.622;9.230;2024-02-15T14:09:14;2.30;;;1.23;;
8893;SDS011;4483;48.622;9.230;2024-02-15T14:11:42;2.22;;;1.33;;
8893;SDS011;4483;48.622;9.230;2024-02-15T14:14:09;4.40;;;1.50;;
8893;SDS011;4483;48.622;9.230;2024-02-15T14:16:37;1.20;;;1.10;;
8893;SDS011;4483;48.622;9.230;2024-02-15T14:19:04;1.42;;;1.25;;
8893;SDS011;4483;48.622;9.230;2024-02-15T14:21:31;2.22;;;1.25;;
8893;SDS011;4483;48.622;9.230;2024-02-15T14:24:04;2.13;;;1.38;;
8893;SDS011;4483;48.622;9.230;2024-02-15T14:26:33;1.52;;;1.40;;
8893;SDS011;4483;48.622;9.230;2024-02-15T14:29:00;3.58;;;1.45;;
8893;SDS011;4483;48.622;9.230;2024-02-15T14:31:28;2.47;;;1.30;;
8893;SDS011;4483;48.622;9.230;2024-02-15T14:34:13;1.40;;;1.17;;
8893;SDS011;4483;48.622;9.230;2024-02-15T14:36:42;1.27;;;1.23;;
8893;SDS011;4483;48.622;9.230;2024-02-15T14:39:10;2.58;;;1.27;;
8893;SDS011;4483;48.622;9.230;2024-02-15T14:41:38;1.55;;;1.20;;
8893;SDS011;4483;48.622;9.230;2024-02-15T14:44:05;1.77;;;1.35;;
8893;SDS011;4483;48.622;9.230;2024-02-15T14:46:32;1.35;;;1.25;;
8893;SDS011;4483;48.622;9.230;2024-02-15T14:49:00;1.42;;;1.25;;
8893;SDS011;4483;48.622;9.230;2024-02-15T14:51:28;2.28;;;1.50;;
8893;SDS011;4483;48.622;9.230;2024-02-15T14:53:57;3.90;;;1.40;;
8893;SDS011;4483;48.622;9.230;2024-02-15T14:56:24;4.22;;;1.50;;
8893;SDS011;4483;48.622;9.230;2024-02-15T14:58:50;1.88;;;1.50;;
8893;SDS011;4483;48.622;9.230;2024-02-15T15:01:18;1.50;;;1.40;;
8893;SDS011;4483;48.622;9.230;2024-02-15T15:03:52;1.95;;;1.40;;
8893;SDS011;4483;48.622;9.230;2024-02-15T15:06:20;1.38;;;1.25;;
8893;SDS011;4483;48.622;9.230;2024-02-15T15:09:05;2.85;;;1.63;;
8893;SDS011;4483;48.622;9.230;2024-02-15T15:11:49;1.48;;;1.38;;
8893;SDS011;4483;48.622;9.230;2024-02-15T15:14:33;4.28;;;1.42;;
8893;SDS011;4483;48.622;9.230;2024-02-15T15:17:00;2.65;;;1.40;;
8893;SDS011;4483;48.622;9.230;2024-02-15T15:19:26;2.63;;;1.80;;
8893;SDS011;4483;48.622;9.230;2024-02-15T15:21:53;5.43;;;1.67;;
8893;SDS011;4483;48.622;9.230;2024-02-15T15:24:21;3.28;;;1.60;;
8893;SDS011;4483;48.622;9.230;2024-02-15T15:26:48;2.53;;;1.25;;
8893;SDS011;4483;48.622;9.230;2024-02-15T15:29:14;1.73;;;1.10;;
8893;SDS011;4483;48.622;9.230;2024-02-15T15:31:41;1.17;;;1.15;;
8893;SDS011;4483;48.622;9.230;2024-02-15T15:34:08;2.22;;;1.23;;
8893;SDS011;4483;48.622;9.230;2024-02-15T15:36:34;2.30;;;1.42;;
8893;SDS011;4483;48.622;9.230;2024-02-15T15:39:01;1.33;;;1.05;;